Time;durP1;ratioP1;P1;durP2;ratioP2;P2;SDS_P1;SDS_P2;PMS_P1;PMS_P2;Temp;Humidity;BMP_temperature;BMP_pressure;BME280_temperature;BME280_humidity;BME280_pressure;Samples;Min_cycle;Max_cycle;Signal;HPM_P1;HPM_P2
2024/04/15 00:02:06;;;;;;;2.85;1.00;;;;;;;11.17;56.10;100833.94;5124468;27;20028;-88
2024/04/15 00:04:35;;;;;;;4.97;0.88;;;;;;;11.18;56.04;100821.72;5138712;27;20008;-91
2024/04/15 00:07:03;;;;;;;4.40;1.10;;;;;;;11.16;56.08;100823.47;5157582;27;20029;-88
2024/04/15 00:09:32;;;;;;;5.28;1.02;;;;;;;11.20;55.99;100841.78;5129997;27;20005;-88
2024/04/15 00:12:00;;;;;;;3.97;1.38;;;;;;;11.22;56.15;100807.69;5153329;27;20013;-90
2024/04/15 00:14:28;;;;;;;3.30;0.90;;;;;;;11.08;56.74;100819.16;5151757;27;20009;-90
2024/04/15 00:16:54;;;;;;;4.95;0.98;;;;;;;11.17;56.69;100812.09;5147134;27;20024;-89
2024/04/15 00:19:26;;;;;;;5.18;1.10;;;;;;;11.18;56.41;100804.22;5158835;27;20006;-90
2024/04/15 00:21:51;;;;;;;6.18;1.15;;;;;;;11.21;56.30;100793.72;5147494;27;20013;-88
2024/04/15 00:24:20;;;;;;;3.78;1.10;;;;;;;11.14;57.08;100784.19;5123267;27;20081;-90
2024/04/15 00:26:45;;;;;;;7.03;1.00;;;;;;;10.88;57.59;100779.16;5152885;27;20024;-87
2024/04/15 00:29:14;;;;;;;1.73;0.88;;;;;;;10.90;57.42;100778.28;5159898;27;20005;-89
2024/04/15 00:31:40;;;;;;;5.38;1.23;;;;;;;10.98;56.71;100757.25;5137473;27;20089;-90
2024/04/15 00:34:08;;;;;;;4.15;0.85;;;;;;;11.00;56.17;100758.13;5149208;27;20012;-88
2024/04/15 00:36:35;;;;;;;5.82;1.23;;;;;;;11.16;56.18;100771.06;5137015;27;20005;-89
2024/04/15 00:39:06;;;;;;;6.03;1.20;;;;;;;11.18;55.86;100770.16;5125195;27;20024;-89
2024/04/15 00:41:32;;;;;;;3.10;0.90;;;;;;;11.23;55.58;100757.03;5145913;27;20029;-90
2024/04/15 00:44:00;;;;;;;5.95;1.30;;;;;;;11.23;55.87;100757.88;5153071;27;20009;-89
2024/04/15 00:46:26;;;;;;;7.25;2.33;;;;;;;11.22;55.44;100760.53;5146375;27;20004;-90
2024/04/15 00:48:56;;;;;;;1.73;0.70;;;;;;;11.08;56.02;100758.91;5208861;27;20019;-89
2024/04/15 00:51:26;;;;;;;3.92;1.00;;;;;;;11.07;56.33;100762.41;5131138;27;20116;-89
2024/04/15 00:53:57;;;;;;;3.22;0.73;;;;;;;11.08;56.80;100755.41;5183033;27;20081;-90
2024/04/15 00:56:23;;;;;;;3.25;1.00;;;;;;;11.00;58.14;100752.88;5183364;27;20008;-89
2024/04/15 00:58:54;;;;;;;8.48;1.42;;;;;;;11.03;58.36;100749.34;5155482;27;20023;-88
2024/04/15 01:01:20;;;;;;;2.38;0.70;;;;;;;10.96;59.24;100745.06;5177074;27;20013;-88
2024/04/15 01:03:52;;;;;;;3.80;0.77;;;;;;;10.89;60.27;100739.00;5193325;27;20018;-88
2024/04/15 01:06:18;;;;;;;2.45;0.55;;;;;;;10.88;61.38;100732.88;5134948;27;20032;-89
2024/04/15 01:08:47;;;;;;;0.80;0.63;;;;;;;10.83;61.45;100739.91;5186722;27;20012;-89
2024/04/15 01:11:13;;;;;;;2.38;0.82;;;;;;;10.71;61.33;100750.50;5190356;27;20004;-88
2024/04/15 01:13:43;;;;;;;4.53;0.75;;;;;;;10.61;61.84;100733.13;5171487;27;20064;-89
2024/04/15 01:16:09;;;;;;;3.85;0.85;;;;;;;10.49;63.70;100732.31;5161711;27;19997;-89
2024/04/15 01:18:37;;;;;;;3.50;1.20;;;;;;;10.41;65.12;100737.63;5195364;27;20217;-89
2024/04/15 01:21:03;;;;;;;1.92;0.93;;;;;;;10.32;66.04;100748.13;5185872;27;20023;-90
2024/04/15 01:23:33;;;;;;;4.18;1.00;;;;;;;10.21;66.91;100742.97;5139325;27;20005;-89
2024/04/15 01:26:00;;;;;;;7.90;1.63;;;;;;;10.19;68.36;100725.53;5160814;27;20013;-88
2024/04/15 01:28:29;;;;;;;2.28;0.77;;;;;;;10.23;67.96;100719.41;5132937;27;20036;-87
2024/04/15 01:30:55;;;;;;;3.85;0.60;;;;;;;10.27;69.09;100715.88;5174273;27;20013;-88
2024/04/15 01:33:23;;;;;;;4.38;1.00;;;;;;;10.26;71.00;100716.78;5186265;27;20084;-88
2024/04/15 01:35:49;;;;;;;3.78;0.70;;;;;;;10.09;71.08;100719.50;5159986;27;20027;-88
2024/04/15 01:38:17;;;;;;;4.05;0.95;;;;;;;10.00;73.97;100716.91;5179327;27;20012;-87
2024/04/15 01:40:43;;;;;;;4.20;1.02;;;;;;;9.94;72.72;100709.97;5157353;27;20012;-86
2024/04/15 01:43:11;;;;;;;2.30;0.93;;;;;;;9.70;72.92;100705.72;5136948;27;20651;-86
2024/04/15 01:46:07;;;;;;;0.90;0.50;;;;;;;9.62;76.84;100707.53;5167702;27;20009;-88
2024/04/15 01:48:54;;;;;;;4.10;0.70;;;;;;;9.56;76.23;100709.28;5087274;27;20008;-87
2024/04/15 01:51:20;;;;;;;5.22;1.02;;;;;;;9.44;79.64;100694.53;5158538;27;20008;-88
2024/04/15 01:53:59;;;;;;;2.72;1.02;;;;;;;9.32;78.96;100707.66;5141385;27;20012;-89
2024/04/15 01:56:32;;;;;;;3.08;0.80;;;;;;;9.23;82.02;100698.09;5087897;27;20009;-87
2024/04/15 01:59:02;;;;;;;7.05;1.35;;;;;;;9.22;83.21;100696.34;5135499;27;20008;-88
2024/04/15 02:01:30;;;;;;;4.90;1.15;;;;;;;9.19;85.15;100691.13;5160946;27;20044;-87
2024/04/15 02:03:59;;;;;;;2.45;0.93;;;;;;;9.21;86.06;100689.38;5154623;27;20041;-88
2024/04/15 02:06:30;;;;;;;4.05;1.08;;;;;;;9.20;86.93;100685.00;5164460;27;20005;-89
2024/04/15 02:08:59;;;;;;;4.47;1.10;;;;;;;8.94;85.95;100683.34;5142898;27;20022;-88
2024/04/15 02:11:24;;;;;;;6.90;1.20;;;;;;;8.97;87.30;100672.03;5184204;27;20009;-87
2024/04/15 02:13:55;;;;;;;2.10;0.80;;;;;;;9.04;88.19;100676.34;5169344;27;20111;-88
2024/04/15 02:16:22;;;;;;;4.43;0.98;;;;;;;8.95;89.08;100673.75;5158103;27;20072;-87
2024/04/15 02:18:50;;;;;;;5.00;1.00;;;;;;;8.92;90.62;100668.56;5138100;27;20051;-88
2024/04/15 02:21:18;;;;;;;6.20;1.35;;;;;;;8.96;92.76;100656.34;5151945;27;20091;-88
2024/04/15 02:23:46;;;;;;;3.40;1.15;;;;;;;8.94;91.01;100659.84;5188151;27;20024;-87
2024/04/15 02:26:14;;;;;;;3.45;1.08;;;;;;;8.95;89.87;100647.66;5190137;27;20621;-89
2024/04/15 02:28:43;;;;;;;7.53;1.33;;;;;;;8.87;90.84;100650.28;5183961;27;20013;-88
2024/04/15 02:31:12;;;;;;;6.10;0.95;;;;;;;8.84;91.21;100638.97;5186160;27;20016;-87
2024/04/15 02:33:43;;;;;;;1.95;0.57;;;;;;;8.85;92.49;100635.50;5181458;27;20036;-88
2024/04/15 02:36:09;;;;;;;1.95;1.73;;;;;;;8.90;93.00;100634.63;5186028;27;20004;-88
2024/04/15 02:38:37;;;;;;;3.75;1.15;;;;;;;9.00;96.37;100632.00;5182200;27;20028;-87
2024/04/15 02:41:03;;;;;;;5.00;1.08;;;;;;;8.95;93.14;100626.75;5179404;27;20008;-88
2024/04/15 02:43:31;;;;;;;2.92;1.15;;;;;;;8.84;95.69;100618.09;5173970;27;20001;-87
2024/04/15 02:45:57;;;;;;;2.35;0.93;;;;;;;8.85;92.58;100617.22;5180957;27;20017;-88
2024/04/15 02:48:26;;;;;;;4.18;0.80;;;;;;;8.87;93.75;100615.50;5179741;27;20025;-89
2024/04/15 02:50:51;;;;;;;1.88;0.82;;;;;;;8.83;93.69;100611.16;5177237;27;20025;-88
2024/04/15 02:53:19;;;;;;;1.70;0.85;;;;;;;8.89;94.04;100592.84;5181824;27;20084;-89
2024/04/15 02:55:45;;;;;;;1.65;0.88;;;;;;;8.83;93.40;100598.09;5184161;27;20015;-87
2024/04/15 02:58:13;;;;;;;4.80;1.75;;;;;;;8.83;93.34;100587.66;5181696;27;20025;-88
2024/04/15 03:00:39;;;;;;;5.00;0.88;;;;;;;8.87;94.00;100574.56;5154264;27;20028;-89
2024/04/15 03:03:07;;;;;;;6.78;1.02;;;;;;;8.92;93.81;100577.19;5174994;27;20036;-89
2024/04/15 03:05:40;;;;;;;10.18;1.45;;;;;;;8.89;94.03;100575.44;5153481;27;20012;-87
2024/04/15 03:08:08;;;;;;;3.53;1.00;;;;;;;8.94;93.75;100559.75;5191877;27;20008;-87
2024/04/15 03:10:35;;;;;;;3.47;1.13;;;;;;;9.01;93.68;100574.53;5123155;27;20015;-89
2024/04/15 03:13:04;;;;;;;3.80;0.95;;;;;;;9.03;92.42;100556.25;5182211;27;20020;-89
2024/04/15 03:15:31;;;;;;;3.72;1.10;;;;;;;8.94;93.76;100555.41;5148623;27;20028;-89
2024/04/15 03:18:00;;;;;;;2.53;0.90;;;;;;;9.01;95.52;100550.16;5177797;27;20367;-88
2024/04/15 03:20:26;;;;;;;1.98;1.33;;;;;;;9.12;94.70;100550.13;5175520;27;20110;-87
2024/04/15 03:22:55;;;;;;;5.85;1.48;;;;;;;9.08;94.87;100539.69;5155490;27;20024;-87
2024/04/15 03:25:22;;;;;;;5.85;1.23;;;;;;;9.18;95.39;100543.13;5175148;27;20019;-89
2024/04/15 03:27:51;;;;;;;2.50;1.13;;;;;;;9.16;94.07;100537.03;5152088;27;20020;-89
2024/04/15 03:33:17;;;;;;;6.15;0.90;;;;;;;9.10;94.96;100522.28;5187601;27;20008;-87
2024/04/15 03:35:43;;;;;;;5.35;1.10;;;;;;;9.06;94.14;100519.66;5178838;27;20012;-89
2024/04/15 03:38:11;;;;;;;3.65;1.20;;;;;;;9.11;93.80;100515.28;5178243;27;20356;-88
2024/04/15 03:40:39;;;;;;;4.50;1.48;;;;;;;9.14;93.71;100515.28;5148370;27;20125;-90
2024/04/15 03:43:07;;;;;;;2.85;0.95;;;;;;;8.97;94.24;100511.88;5148633;27;20032;-88
2024/04/15 03:45:33;;;;;;;4.68;1.60;;;;;;;9.13;95.04;100504.88;5177191;27;20015;-88
2024/04/15 03:48:01;;;;;;;4.50;1.50;;;;;;;9.07;93.50;100509.25;5157522;27;20013;-88
2024/04/15 03:50:27;;;;;;;1.08;0.82;;;;;;;9.05;95.76;100502.28;5156546;27;20031;-88
2024/04/15 03:53:00;;;;;;;8.30;1.15;;;;;;;9.17;94.53;100499.59;5152189;27;20020;-89
2024/04/15 03:55:25;;;;;;;5.10;1.35;;;;;;;9.26;94.01;100485.63;5130292;27;20092;-87
2024/04/15 03:57:53;;;;;;;3.75;1.10;;;;;;;9.22;93.93;100494.34;5183562;27;20035;-86
2024/04/15 04:00:19;;;;;;;3.78;0.93;;;;;;;9.08;92.67;100482.22;5149883;27;20024;-87
2024/04/15 04:02:47;;;;;;;2.22;1.17;;;;;;;9.03;92.71;100480.53;5167035;27;20004;-88
2024/04/15 04:05:13;;;;;;;4.22;0.85;;;;;;;8.98;93.72;100477.06;5155843;27;20017;-89
2024/04/15 04:07:41;;;;;;;3.65;1.17;;;;;;;9.00;93.35;100486.63;5154455;27;20009;-87
2024/04/15 04:10:07;;;;;;;4.65;1.30;;;;;;;9.02;93.67;100471.84;5179196;27;20016;-89
2024/04/15 04:12:38;;;;;;;4.55;0.88;;;;;;;9.12;92.07;100470.03;5182698;27;20008;-88
2024/04/15 04:15:05;;;;;;;2.35;1.25;;;;;;;9.18;91.21;100461.31;5158800;27;20018;-88
2024/04/15 04:17:33;;;;;;;4.40;1.65;;;;;;;9.24;90.80;100462.13;5157104;27;20024;-88
2024/04/15 04:19:59;;;;;;;3.20;1.00;;;;;;;9.19;90.95;100453.47;5155071;27;20013;-89
2024/04/15 04:22:29;;;;;;;4.30;1.02;;;;;;;9.16;90.88;100448.22;5182806;27;20013;-87
2024/04/15 04:24:54;;;;;;;4.32;1.10;;;;;;;9.23;91.23;100441.22;5155799;27;20031;-88
2024/04/15 04:27:34;;;;;;;3.30;1.38;;;;;;;9.22;91.04;100445.59;5152756;27;20020;-87
2024/04/15 04:30:01;;;;;;;2.80;1.20;;;;;;;9.20;91.54;100451.69;5180673;27;20200;-88
2024/04/15 04:32:29;;;;;;;1.60;0.93;;;;;;;9.24;91.91;100449.06;5152766;27;20013;-88
2024/04/15 04:34:55;;;;;;;4.55;1.30;;;;;;;9.32;93.57;100442.91;5181485;27;20016;-87
2024/04/15 04:37:26;;;;;;;2.40;0.80;;;;;;;9.38;93.82;100445.47;5178269;27;20020;-88
2024/04/15 04:39:55;;;;;;;5.38;1.23;;;;;;;9.42;91.95;100440.22;5181305;27;20020;-87
2024/04/15 04:42:24;;;;;;;4.15;1.15;;;;;;;9.32;93.08;100443.78;5176157;27;20044;-88
2024/04/15 04:45:02;;;;;;;5.50;1.35;;;;;;;9.36;92.51;100449.84;5162198;27;20031;-88
2024/04/15 04:47:35;;;;;;;3.25;1.20;;;;;;;9.39;93.10;100440.25;5165326;27;20016;-89
2024/04/15 04:50:01;;;;;;;2.60;1.38;;;;;;;9.32;93.69;100437.69;5501733;22;20028;-91
2024/04/15 04:52:30;;;;;;;4.05;1.13;;;;;;;9.32;93.47;100430.75;5187815;27;20022;-88
2024/04/15 04:54:56;;;;;;;5.88;1.35;;;;;;;9.13;95.15;100431.75;5224423;27;20019;-86
2024/04/15 04:57:26;;;;;;;2.40;1.05;;;;;;;9.23;94.85;100426.44;5218385;27;20020;-92
2024/04/15 04:59:55;;;;;;;3.40;1.40;;;;;;;8.99;95.90;100424.84;5219794;27;19995;-86
2024/04/15 05:02:25;;;;;;;1.60;0.90;;;;;;;9.07;97.01;100430.91;5204352;22;20629;-89
2024/04/15 05:05:32;;;;;;;5.90;1.55;;;;;;;9.09;97.19;100428.28;5129686;27;20014;-89
2024/04/15 05:08:01;;;;;;;3.47;1.35;;;;;;;9.04;98.81;100424.81;5127984;27;20135;-89
2024/04/15 05:10:34;;;;;;;2.60;1.27;;;;;;;9.09;98.89;100429.13;5185771;27;20008;-87
2024/04/15 05:13:00;;;;;;;5.80;1.33;;;;;;;9.22;97.95;100424.69;5137445;27;20018;-86
2024/04/15 05:15:29;;;;;;;2.00;1.40;;;;;;;9.30;98.26;100427.25;5154419;27;20013;-88
2024/04/15 05:17:58;;;;;;;5.47;1.63;;;;;;;9.31;98.39;100415.94;5108439;27;20015;-88
2024/04/15 05:20:26;;;;;;;3.08;1.77;;;;;;;9.35;97.89;100409.81;5169940;27;20012;-85
2024/04/15 05:22:55;;;;;;;3.00;1.45;;;;;;;9.32;99.10;100407.22;5156466;27;20013;-88
2024/04/15 05:25:26;;;;;;;3.67;2.63;;;;;;;9.31;99.36;100408.09;5151709;27;20017;-88
2024/04/15 05:27:52;;;;;;;4.53;2.50;;;;;;;9.40;99.70;100409.78;5130832;27;20035;-86
2024/04/15 05:30:21;;;;;;;6.05;2.47;;;;;;;9.45;98.51;100410.56;5155504;27;20464;-87
2024/04/15 05:32:47;;;;;;;3.88;2.63;;;;;;;9.39;99.21;100401.06;5155676;27;20036;-88
2024/04/15 05:35:17;;;;;;;3.70;2.60;;;;;;;9.35;100.00;100404.56;5128695;27;20040;-85
2024/04/15 05:37:47;;;;;;;5.50;2.42;;;;;;;9.43;100.00;100396.69;5149693;27;20012;-89
2024/04/15 05:40:16;;;;;;;8.02;2.92;;;;;;;9.57;100.00;100391.34;5181586;27;20017;-87
2024/04/15 05:45:47;;;;;;;13.77;5.25;;;;;;;9.82;100.00;100386.72;5175975;27;20059;-88
2024/04/15 05:48:31;;;;;;;8.55;3.78;;;;;;;9.70;100.00;100379.88;5193027;27;20008;-89
2024/04/15 05:51:08;;;;;;;7.78;4.07;;;;;;;9.72;100.00;100372.88;5485919;21;20049;-87
2024/04/15 05:53:34;;;;;;;5.18;4.32;;;;;;;9.47;100.00;100376.63;5154183;27;19996;-89
2024/04/15 05:56:12;;;;;;;7.80;4.00;;;;;;;9.66;100.00;100366.84;5206440;27;20015;-92
2024/04/15 05:58:42;;;;;;;8.88;4.63;;;;;;;9.69;100.00;100372.06;5207937;27;20450;-87
2024/04/15 06:01:12;;;;;;;13.50;5.15;;;;;;;9.80;100.00;100375.41;5380191;22;20019;-87
2024/04/15 06:03:38;;;;;;;7.75;4.50;;;;;;;9.93;100.00;100363.09;5148500;27;20081;-87
2024/04/15 06:06:07;;;;;;;11.30;4.38;;;;;;;9.98;100.00;100353.44;5063956;27;20009;-86
2024/04/15 06:08:33;;;;;;;8.55;4.88;;;;;;;10.06;100.00;100356.84;5147822;27;20704;-87
2024/04/15 06:11:01;;;;;;;5.15;4.65;;;;;;;10.00;100.00;100349.06;5154489;27;20009;-87
2024/04/15 06:13:28;;;;;;;11.77;4.57;;;;;;;10.01;100.00;100349.91;5145737;27;20009;-85
2024/04/15 06:15:57;;;;;;;10.82;4.80;;;;;;;9.97;100.00;100336.00;5145790;27;20031;-88
2024/04/15 06:18:26;;;;;;;7.55;4.68;;;;;;;10.06;100.00;100340.28;5145423;27;20021;-85
2024/04/15 06:20:56;;;;;;;8.45;4.45;;;;;;;10.10;100.00;100336.72;5130505;27;20009;-86
2024/04/15 06:23:23;;;;;;;8.82;4.78;;;;;;;10.25;100.00;100335.69;5101351;27;20460;-86
2024/04/15 06:26:08;;;;;;;8.75;4.68;;;;;;;10.20;100.00;100332.28;5119382;27;20020;-86
2024/04/15 06:28:40;;;;;;;6.28;3.85;;;;;;;10.25;100.00;100328.69;5222823;22;20082;-88
2024/04/15 06:31:08;;;;;;;7.35;5.00;;;;;;;10.48;99.07;100317.13;5245890;27;20063;-89
2024/04/15 06:33:34;;;;;;;8.55;4.93;;;;;;;10.66;98.60;100304.63;5267774;27;20095;-88
2024/04/15 06:36:02;;;;;;;12.48;5.97;;;;;;;10.68;97.42;100314.19;5222709;27;20019;-90
2024/04/15 06:38:28;;;;;;;5.85;5.28;;;;;;;10.74;97.74;100300.13;5190538;27;20092;-88
2024/04/15 06:41:04;;;;;;;14.68;5.60;;;;;;;10.93;97.28;100298.09;5216338;27;20090;-88
2024/04/15 06:46:09;;;;;;;7.32;5.60;;;;;;;10.75;96.11;100292.28;5270683;22;20223;-87
2024/04/15 06:48:35;;;;;;;6.68;4.60;;;;;;;10.71;97.29;100282.72;5190561;27;20132;-88
2024/04/15 06:51:08;;;;;;;12.63;5.78;;;;;;;10.73;96.49;100274.88;5188116;27;20370;-89
2024/04/15 06:53:36;;;;;;;7.43;5.50;;;;;;;11.13;93.85;100273.34;5220758;27;20012;-89
2024/04/15 06:56:11;;;;;;;7.30;5.90;;;;;;;11.38;91.48;100277.25;5262072;22;21125;-87
2024/04/15 06:58:38;;;;;;;;;;;;;;;10.78;93.46;100269.53;5289468;22;20178;-86
2024/04/15 07:01:09;;;;;;;7.13;5.68;;;;;;;10.67;95.12;100267.97;5248948;22;20209;-88
2024/04/15 07:03:35;;;;;;;9.93;7.47;;;;;;;10.78;94.57;100262.56;5312850;22;20090;-86
2024/04/15 07:06:07;;;;;;;5.68;5.05;;;;;;;10.70;95.37;100259.19;5408491;22;20029;-87
2024/04/15 07:08:33;;;;;;;13.23;6.20;;;;;;;10.68;95.42;100253.97;5184933;27;20020;-91
2024/04/15 07:13:47;;;;;;;11.35;6.55;;;;;;;11.27;92.03;100249.50;5190968;22;20012;-88
2024/04/15 07:16:20;;;;;;;9.40;7.22;;;;;;;11.62;91.12;100251.47;5297125;22;20003;-87
2024/04/15 07:18:53;;;;;;;6.78;6.10;;;;;;;12.04;85.94;100232.28;5296246;22;20022;-89
2024/04/15 07:21:32;;;;;;;16.63;7.03;;;;;;;11.84;84.53;100225.66;5350430;21;20005;-88
2024/04/15 07:24:06;;;;;;;14.98;8.15;;;;;;;11.57;84.08;100230.56;5158937;27;20001;-88
2024/04/15 07:26:43;;;;;;;7.47;6.65;;;;;;;12.56;79.93;100236.31;5180209;27;20016;-87
2024/04/15 07:29:14;;;;;;;9.90;6.38;;;;;;;11.39;82.66;100226.56;5234180;22;20006;-87
2024/04/15 07:31:40;;;;;;;7.40;6.28;;;;;;;11.47;82.67;100217.69;5151806;27;20013;-89
2024/04/15 07:34:11;;;;;;;6.82;6.22;;;;;;;11.57;82.73;100219.22;5241196;22;20023;-89
2024/04/15 07:36:36;;;;;;;9.18;6.63;;;;;;;11.39;83.18;100220.44;5139690;27;20038;-90
2024/04/15 07:39:07;;;;;;;9.93;6.57;;;;;;;11.05;83.52;100219.31;5167774;27;20092;-89
2024/04/15 07:41:41;;;;;;;9.55;7.00;;;;;;;11.15;83.86;100214.78;5162439;27;20015;-89
2024/04/15 07:44:11;;;;;;;8.95;6.80;;;;;;;11.39;82.30;100204.72;5210628;27;20012;-89
2024/04/15 07:46:42;;;;;;;9.40;6.28;;;;;;;11.69;78.60;100191.88;5180122;27;20016;-89
2024/04/15 07:49:11;;;;;;;9.45;5.78;;;;;;;11.60;78.65;100187.69;5183335;27;20016;-92
2024/04/15 07:51:38;;;;;;;8.57;6.25;;;;;;;12.65;75.35;100189.75;5182002;27;20018;-91
2024/04/15 07:56:54;;;;;;;8.13;5.95;;;;;;;12.27;72.73;100175.78;5177903;27;20092;-88
2024/04/15 07:59:22;;;;;;;8.35;6.00;;;;;;;12.66;72.71;100188.81;5451783;22;20744;-86
2024/04/15 08:04:33;;;;;;;13.27;6.18;;;;;;;11.55;73.45;100176.44;5239987;22;20024;-86
2024/04/15 08:06:59;;;;;;;10.82;5.30;;;;;;;11.59;74.07;100184.22;5192776;27;21423;-89
2024/04/15 08:09:39;;;;;;;7.43;4.97;;;;;;;11.45;74.00;100186.25;5214500;27;20000;-86
2024/04/15 08:12:07;;;;;;;6.88;4.63;;;;;;;11.53;73.88;100167.75;5146190;27;20022;-87
2024/04/15 08:14:38;;;;;;;10.75;5.40;;;;;;;11.48;73.03;100164.38;5179693;27;20024;-86
2024/04/15 08:17:08;;;;;;;7.15;5.22;;;;;;;11.78;72.63;100162.84;5195768;27;20022;-88
2024/04/15 08:19:38;;;;;;;7.70;4.85;;;;;;;11.84;71.05;100154.00;5214498;27;20047;-86
2024/04/15 08:22:10;;;;;;;10.85;4.50;;;;;;;12.25;70.20;100144.31;5188748;27;20007;-88
2024/04/15 08:24:39;;;;;;;8.25;5.20;;;;;;;12.10;71.17;100155.19;5184866;27;20026;-89
2024/04/15 08:27:04;;;;;;;9.13;5.97;;;;;;;12.12;69.93;100143.75;5193899;27;20026;-85
2024/04/15 08:29:33;;;;;;;7.85;4.60;;;;;;;12.26;69.38;100142.56;5194302;27;20007;-89
2024/04/15 08:32:01;;;;;;;11.00;5.28;;;;;;;12.35;68.62;100143.19;5168343;27;20032;-89
2024/04/15 08:34:30;;;;;;;10.35;5.50;;;;;;;12.96;66.37;100139.91;5197933;27;20015;-86
2024/04/15 08:36:59;;;;;;;8.30;5.72;;;;;;;13.34;63.95;100131.84;5164682;27;20004;-90
2024/04/15 08:39:38;;;;;;;13.27;5.35;;;;;;;13.64;63.95;100124.00;5187274;27;20477;-85
2024/04/15 08:42:33;;;;;;;8.57;4.53;;;;;;;13.77;63.53;100129.75;5178829;27;20031;-89
2024/04/15 08:45:02;;;;;;;9.77;5.85;;;;;;;13.83;63.27;100125.16;5225149;27;20019;-85
2024/04/15 08:47:34;;;;;;;9.57;6.00;;;;;;;13.60;63.18;100127.63;5164156;27;20024;-90
2024/04/15 08:50:04;;;;;;;12.15;7.35;;;;;;;13.72;64.34;100128.09;5191775;27;20026;-90
2024/04/15 08:52:32;;;;;;;13.25;7.88;;;;;;;13.68;64.53;100128.25;5187205;27;20195;-87
2024/04/15 08:55:03;;;;;;;12.73;8.20;;;;;;;13.76;64.02;100117.50;5193217;27;20023;-86
2024/04/15 08:57:31;;;;;;;11.88;8.40;;;;;;;13.43;64.12;100112.34;5219546;27;20027;-87
2024/04/15 09:00:04;;;;;;;15.85;9.32;;;;;;;12.70;65.61;100109.94;5194226;27;20015;-86
2024/04/15 09:02:39;;;;;;;15.15;9.40;;;;;;;13.03;65.61;100120.44;5189107;27;20072;-87
2024/04/15 09:05:09;;;;;;;17.30;10.05;;;;;;;13.03;65.98;100125.69;5190851;27;20031;-88
2024/04/15 09:07:40;;;;;;;15.50;9.77;;;;;;;13.37;64.84;100121.28;5193820;27;20012;-86
2024/04/15 09:10:10;;;;;;;13.35;9.52;;;;;;;14.88;60.77;100111.19;5222152;27;20008;-88
2024/04/15 09:12:43;;;;;;;12.75;8.40;;;;;;;16.13;56.18;100110.06;5195920;27;20019;-86
2024/04/15 09:15:17;;;;;;;11.93;8.93;;;;;;;17.23;52.54;100103.59;5164619;27;20036;-85
2024/04/15 09:17:50;;;;;;;12.45;8.05;;;;;;;16.85;51.38;100106.97;5164165;27;20016;-88
2024/04/15 09:20:32;;;;;;;15.20;7.30;;;;;;;14.84;55.08;100095.56;5168082;27;20055;-89
2024/04/15 09:23:24;;;;;;;10.98;7.90;;;;;;;13.55;57.94;100096.22;5195998;27;20010;-88
2024/04/15 09:26:02;;;;;;;11.73;6.93;;;;;;;13.53;59.23;100092.75;5195763;27;20027;-88
2024/04/15 09:28:32;;;;;;;9.65;7.07;;;;;;;14.41;55.96;100078.59;5220664;27;20019;-88
2024/04/15 09:31:24;;;;;;;9.68;6.57;;;;;;;14.74;54.97;100057.28;5189293;27;20015;-86
2024/04/15 09:33:53;;;;;;;15.25;6.80;;;;;;;15.17;54.56;100043.34;5171330;27;20000;-90
2024/04/15 09:36:25;;;;;;;10.65;6.32;;;;;;;15.39;53.28;100035.47;5199316;27;20051;-87
2024/04/15 09:38:54;;;;;;;12.30;7.43;;;;;;;15.02;54.35;100028.16;5217546;27;20011;-89
2024/04/15 09:41:23;;;;;;;12.20;6.82;;;;;;;16.10;52.50;100025.66;5216495;27;20020;-86
2024/04/15 09:43:53;;;;;;;8.48;7.53;;;;;;;16.77;49.98;100013.13;5166811;27;20015;-87
2024/04/15 09:46:36;;;;;;;12.50;7.43;;;;;;;17.72;48.83;100004.28;5222678;27;20052;-87
2024/04/15 09:49:04;;;;;;;9.68;6.25;;;;;;;17.59;47.71;100009.34;5171066;27;20088;-88
2024/04/15 09:51:38;;;;;;;10.38;5.65;;;;;;;17.55;46.85;99997.16;5170043;27;20095;-88
2024/04/15 09:54:15;;;;;;;11.07;5.78;;;;;;;17.27;45.60;99998.50;5169809;27;20023;-86
2024/04/15 09:56:50;;;;;;;8.70;5.60;;;;;;;16.66;46.91;99993.31;5165065;27;20012;-87
2024/04/15 09:59:20;;;;;;;10.27;4.47;;;;;;;17.70;45.58;99991.13;5194204;27;20027;-89
2024/04/15 10:01:53;;;;;;;6.00;4.28;;;;;;;16.72;45.66;99984.22;5163441;27;20027;-90
2024/04/15 10:04:26;;;;;;;8.48;4.03;;;;;;;16.36;46.75;99985.81;5164715;27;20015;-88
2024/04/15 10:07:05;;;;;;;4.95;3.80;;;;;;;15.66;48.08;99987.84;5189861;27;20027;-90
2024/04/15 10:09:37;;;;;;;5.88;3.85;;;;;;;15.47;48.57;99992.13;5216313;27;19999;-89
2024/04/15 10:12:04;;;;;;;5.20;3.42;;;;;;;14.65;50.52;99976.78;5167534;27;20010;-87
2024/04/15 10:14:39;;;;;;;7.03;3.70;;;;;;;14.18;51.04;99961.75;5191346;27;20075;-89
2024/04/15 10:17:18;;;;;;;4.25;2.97;;;;;;;14.03;51.05;99969.25;5172845;27;20024;-89
2024/04/15 10:19:56;;;;;;;6.32;3.53;;;;;;;13.65;51.40;99971.41;5165667;27;20082;-88
2024/04/15 10:22:24;;;;;;;3.97;2.50;;;;;;;13.48;52.02;99960.56;5208922;27;20023;-89
2024/04/15 10:25:01;;;;;;;12.80;4.53;;;;;;;13.46;52.08;99950.09;5198280;27;20087;-86
2024/04/15 10:27:57;;;;;;;5.13;3.65;;;;;;;13.56;53.38;99941.00;5197711;27;20086;-86
2024/04/15 10:31:03;;;;;;;3.88;2.80;;;;;;;13.50;52.71;99921.94;5202909;27;20030;-88
2024/04/15 10:33:40;;;;;;;5.90;3.05;;;;;;;13.90;51.51;99910.09;5337041;22;20017;-89
2024/04/15 10:36:11;;;;;;;4.63;2.55;;;;;;;14.89;48.13;99910.00;5197510;27;20019;-86
2024/04/15 10:38:51;;;;;;;6.20;2.35;;;;;;;14.81;48.99;99905.94;5164896;27;20017;-88
2024/04/15 10:41:24;;;;;;;8.43;3.92;;;;;;;14.60;49.56;99900.56;5168416;27;20016;-86
2024/04/15 10:43:56;;;;;;;6.78;3.25;;;;;;;14.05;50.36;99901.66;5168252;27;20055;-87
2024/04/15 10:46:25;;;;;;;6.20;3.00;;;;;;;14.22;50.91;99902.81;5169657;27;20008;-86
2024/04/15 10:49:02;;;;;;;6.55;2.78;;;;;;;14.14;50.29;99896.97;5189926;27;20084;-89
2024/04/15 10:51:29;;;;;;;7.50;3.47;;;;;;;13.76;51.98;99891.28;5215202;27;20020;-87
2024/04/15 10:54:08;;;;;;;4.40;2.92;;;;;;;13.47;53.44;99888.72;5165986;27;20012;-89
2024/04/15 10:56:34;;;;;;;7.25;2.90;;;;;;;13.47;53.56;99880.84;5162224;27;20045;-89
2024/04/15 10:59:03;;;;;;;6.13;2.88;;;;;;;13.23;53.52;99871.94;5144137;27;20527;-89
2024/04/15 11:01:33;;;;;;;4.95;2.35;;;;;;;13.17;53.42;99862.50;5177654;27;20021;-89
2024/04/15 11:04:12;;;;;;;5.20;3.38;;;;;;;13.14;53.97;99865.25;5166720;27;20020;-87
2024/04/15 11:06:41;;;;;;;9.60;3.70;;;;;;;12.82;54.72;99858.38;5168608;27;20015;-90
2024/04/15 11:12:15;;;;;;;7.22;4.22;;;;;;;15.15;50.37;99826.41;5235441;27;20126;-89
2024/04/15 11:14:55;;;;;;;17.30;3.85;;;;;;;16.34;48.25;99815.97;5213910;27;20003;-89
2024/04/15 11:17:25;;;;;;;6.70;3.45;;;;;;;16.02;47.21;99812.16;5216634;27;20060;-88
2024/04/15 11:20:16;;;;;;;7.72;2.92;;;;;;;15.14;49.28;99798.31;5181884;27;20027;-88
2024/04/15 11:22:56;;;;;;;6.10;3.13;;;;;;;14.53;50.35;99805.09;5215234;27;20012;-89
2024/04/15 11:25:24;;;;;;;9.57;3.10;;;;;;;15.15;50.71;99794.75;5167324;27;20056;-92
2024/04/15 11:28:01;;;;;;;5.32;3.40;;;;;;;15.18;49.91;99791.13;5220428;27;20071;-87
2024/04/15 11:30:35;;;;;;;7.50;3.42;;;;;;;15.84;48.59;99779.56;5215576;27;20078;-91
2024/04/15 11:33:19;;;;;;;6.97;4.30;;;;;;;16.01;48.04;99784.06;5219969;27;20027;-89
2024/04/15 11:35:54;;;;;;;8.30;3.90;;;;;;;15.09;49.96;99767.81;5231209;22;20585;-90
2024/04/15 11:41:20;;;;;;;10.98;4.15;;;;;;;14.41;51.76;99765.25;5349188;22;20024;-86
2024/04/15 11:49:04;;;;;;;8.57;3.00;;;;;;;17.74;42.11;99733.28;5435990;21;20024;-89
2024/04/15 11:51:32;;;;;;;6.53;3.28;;;;;;;17.08;41.64;99736.72;5217691;27;20008;-89
2024/04/15 11:54:05;;;;;;;9.30;1.63;;;;;;;15.54;43.58;99722.78;5217574;27;20015;-92
2024/04/15 11:56:31;;;;;;;5.78;2.30;;;;;;;15.29;45.16;99716.84;5198895;27;20015;-90
2024/04/15 11:59:00;;;;;;;4.32;1.75;;;;;;;15.08;45.83;99716.84;5164650;27;20055;-91
2024/04/15 12:01:27;;;;;;;8.90;2.22;;;;;;;14.96;45.75;99715.59;5195868;27;20015;-89
2024/04/15 12:03:57;;;;;;;6.25;2.60;;;;;;;15.96;43.44;99697.16;5214676;27;20015;-85
2024/04/15 12:06:26;;;;;;;6.07;1.88;;;;;;;16.46;43.28;99700.94;5187413;27;20024;-85
2024/04/15 12:08:54;;;;;;;5.88;2.08;;;;;;;16.38;43.35;99684.63;5164594;27;20019;-89
2024/04/15 12:11:22;;;;;;;6.20;1.80;;;;;;;15.65;45.28;99687.13;5196585;27;20014;-85
2024/04/15 12:13:51;;;;;;;7.18;1.65;;;;;;;15.08;46.70;99677.31;5197550;27;20007;-87